Time;durP1;ratioP1;P1;durP2;ratioP2;P2;SDS_P1;SDS_P2;PMS_P1;PMS_P2;Temp;Humidity;BMP_temperature;BMP_pressure;BME280_temperature;BME280_humidity;BME280_pressure;Samples;Min_cycle;Max_cycle;Signal;HPM_P1;HPM_P2
2021/06/12 00:00:17;;;;;;;0.70;0.70;;;22.90;99.90;;;;;;5064677;28;20021;-66
2021/06/12 00:02:43;;;;;;;0.80;0.80;;;22.90;99.90;;;;;;5070793;28;20441;-67
2021/06/12 00:05:10;;;;;;;0.73;0.73;;;22.90;99.90;;;;;;5082862;28;20047;-67
2021/06/12 00:07:36;;;;;;;0.60;0.60;;;22.90;99.90;;;;;;5084194;28;20104;-67
2021/06/12 00:10:08;;;;;;;0.60;0.60;;;22.90;99.90;;;;;;5074057;28;20502;-65
2021/06/12 00:12:34;;;;;;;0.60;0.60;;;22.80;99.90;;;;;;5071739;28;20039;-63
2021/06/12 00:15:00;;;;;;;0.60;0.60;;;22.80;99.90;;;;;;5080690;28;20500;-63
2021/06/12 00:17:26;;;;;;;0.68;0.65;;;22.80;99.90;;;;;;5083593;28;20128;-64
2021/06/12 00:19:52;;;;;;;0.70;0.70;;;22.80;99.90;;;;;;5080564;28;20023;-63
2021/06/12 00:22:18;;;;;;;0.60;0.60;;;22.90;99.90;;;;;;5085174;28;20034;-64
2021/06/12 00:24:43;;;;;;;0.85;0.73;;;22.80;99.90;;;;;;5088181;28;20024;-64
2021/06/12 00:27:10;;;;;;;0.80;0.80;;;22.70;99.90;;;;;;5068789;28;20060;-64
2021/06/12 00:29:36;;;;;;;0.77;0.77;;;22.80;99.90;;;;;;5069205;28;20025;-63
2021/06/12 00:32:02;;;;;;;1.20;1.00;;;22.70;99.90;;;;;;5086940;28;20089;-64
2021/06/12 00:34:27;;;;;;;0.90;0.90;;;22.70;99.90;;;;;;5089291;28;20024;-63
2021/06/12 00:36:53;;;;;;;0.80;0.57;;;22.60;99.90;;;;;;5089363;28;20553;-63
2021/06/12 00:39:19;;;;;;;0.95;0.80;;;22.60;99.90;;;;;;5089379;28;20027;-63
2021/06/12 00:41:45;;;;;;;0.70;0.70;;;22.50;99.90;;;;;;5088100;28;20024;-63
2021/06/12 00:44:11;;;;;;;0.75;0.70;;;22.50;99.90;;;;;;5089688;28;20406;-63
2021/06/12 00:46:37;;;;;;;0.80;0.80;;;22.40;99.90;;;;;;5078336;28;20094;-63
2021/06/12 00:49:03;;;;;;;0.90;0.90;;;22.30;99.90;;;;;;5068567;28;20033;-64
2021/06/12 00:51:29;;;;;;;0.85;0.85;;;22.40;99.90;;;;;;5067509;28;20708;-64
2021/06/12 00:53:54;;;;;;;0.70;0.70;;;22.40;99.90;;;;;;5067706;28;20107;-66
2021/06/12 00:56:21;;;;;;;0.80;0.80;;;22.40;99.90;;;;;;5068039;28;20040;-64
2021/06/12 00:58:50;;;;;;;0.82;0.82;;;22.40;99.90;;;;;;5087294;28;20375;-63
2021/06/12 01:01:17;;;;;;;0.70;0.70;;;22.30;99.90;;;;;;5088515;28;20446;-63
2021/06/12 01:03:45;;;;;;;0.70;0.70;;;22.30;99.90;;;;;;5088937;28;20099;-64
2021/06/12 01:06:13;;;;;;;0.90;0.90;;;22.20;99.90;;;;;;5088760;28;20040;-63
2021/06/12 01:08:41;;;;;;;0.73;0.73;;;22.20;99.90;;;;;;5088756;28;20600;-63
2021/06/12 01:11:07;;;;;;;0.98;0.90;;;22.30;99.90;;;;;;5088930;28;20032;-63
2021/06/12 01:14:04;;;;;;;0.80;0.80;;;22.30;99.90;;;;;;5089136;28;20019;-63
2021/06/12 01:16:51;;;;;;;0.70;0.70;;;22.40;99.90;;;;;;5068363;28;20036;-63
2021/06/12 01:19:38;;;;;;;1.40;0.90;;;22.40;99.90;;;;;;5070856;28;20537;-63
2021/06/12 01:22:24;;;;;;;0.70;0.70;;;22.30;99.90;;;;;;5076456;28;20033;-63
2021/06/12 01:24:59;;;;;;;0.80;0.80;;;22.20;99.90;;;;;;5083031;28;20027;-63
2021/06/12 01:27:55;;;;;;;1.10;0.98;;;22.20;99.90;;;;;;5087716;28;20043;-62
2021/06/12 01:30:27;;;;;;;0.77;0.77;;;22.20;99.90;;;;;;5094421;28;20037;-63
2021/06/12 01:32:58;;;;;;;1.73;1.00;;;22.10;99.90;;;;;;5108957;28;20397;-62
2021/06/12 01:35:44;;;;;;;0.75;0.70;;;22.00;99.90;;;;;;5108460;28;20031;-63
2021/06/12 01:38:21;;;;;;;0.60;0.60;;;22.10;99.90;;;;;;5088094;28;20035;-62
2021/06/12 01:40:49;;;;;;;0.77;0.73;;;22.10;99.90;;;;;;5088528;28;20553;-62
2021/06/12 01:43:17;;;;;;;2.15;0.60;;;22.10;99.90;;;;;;5086489;28;20024;-63
2021/06/12 01:45:45;;;;;;;1.45;1.00;;;22.10;99.90;;;;;;5087988;28;20051;-63
2021/06/12 01:48:12;;;;;;;0.82;0.80;;;22.10;99.90;;;;;;5088155;28;20044;-63
2021/06/12 01:50:38;;;;;;;1.40;1.08;;;22.10;99.90;;;;;;5078421;28;20043;-63
2021/06/12 01:53:06;;;;;;;0.80;0.80;;;22.10;99.90;;;;;;5068481;28;20033;-63
2021/06/12 01:55:34;;;;;;;0.80;0.80;;;21.90;99.90;;;;;;5068050;28;20058;-63
2021/06/12 01:58:15;;;;;;;1.55;1.00;;;21.90;99.90;;;;;;5067010;28;20027;-63
2021/06/12 02:00:41;;;;;;;0.80;0.80;;;21.90;99.90;;;;;;5067691;28;20028;-63
2021/06/12 02:03:09;;;;;;;0.85;0.85;;;21.90;99.90;;;;;;5067671;28;20036;-63
2021/06/12 02:05:35;;;;;;;1.23;0.80;;;21.70;99.90;;;;;;5067889;28;20032;-63
2021/06/12 02:08:03;;;;;;;0.88;0.70;;;21.80;99.90;;;;;;5067995;28;20120;-63
2021/06/12 02:10:31;;;;;;;1.30;1.00;;;21.80;99.90;;;;;;5067309;28;20705;-63
2021/06/12 02:12:57;;;;;;;1.10;1.00;;;21.70;99.90;;;;;;5067424;28;20409;-63
2021/06/12 02:15:25;;;;;;;0.80;0.80;;;21.60;99.90;;;;;;5079249;28;20024;-62
2021/06/12 02:18:03;;;;;;;0.98;0.98;;;21.60;99.90;;;;;;5087596;28;20266;-63
2021/06/12 02:20:31;;;;;;;1.30;0.90;;;21.50;99.90;;;;;;5087201;28;20019;-63
2021/06/12 02:22:58;;;;;;;0.98;0.90;;;21.40;99.90;;;;;;5087334;28;20024;-63
2021/06/12 02:25:24;;;;;;;0.80;0.80;;;21.40;99.90;;;;;;5087072;28;20032;-63
2021/06/12 02:27:54;;;;;;;1.48;1.00;;;21.40;99.90;;;;;;5087019;28;20028;-63
2021/06/12 02:30:23;;;;;;;1.20;1.10;;;21.40;99.90;;;;;;5072504;28;20028;-63
2021/06/12 02:32:54;;;;;;;0.80;0.80;;;21.30;99.90;;;;;;5067179;28;20024;-63
2021/06/12 02:35:20;;;;;;;1.05;0.90;;;21.40;99.90;;;;;;5066665;28;20047;-62
2021/06/12 02:37:46;;;;;;;1.35;1.10;;;21.40;99.90;;;;;;5079659;28;20498;-62
2021/06/12 02:40:13;;;;;;;0.98;0.98;;;21.40;99.90;;;;;;5085934;28;20059;-62
2021/06/12 02:42:40;;;;;;;1.10;1.00;;;21.20;99.90;;;;;;5086686;28;20401;-63
2021/06/12 02:45:08;;;;;;;0.90;0.90;;;21.10;99.90;;;;;;5084855;28;20039;-63
2021/06/12 02:47:52;;;;;;;0.80;0.80;;;21.00;99.90;;;;;;5086624;28;20050;-63
2021/06/12 02:50:20;;;;;;;1.10;1.00;;;20.90;99.90;;;;;;5069740;28;20379;-63
2021/06/12 02:52:48;;;;;;;1.27;1.00;;;21.00;99.90;;;;;;5067559;28;20028;-63
2021/06/12 02:55:14;;;;;;;1.02;1.00;;;21.10;99.90;;;;;;5066298;28;20078;-63
2021/06/12 02:57:47;;;;;;;0.85;0.85;;;21.20;99.90;;;;;;5070127;28;20394;-62
2021/06/12 03:00:14;;;;;;;0.90;0.90;;;21.00;99.90;;;;;;5080806;28;20086;-63
2021/06/12 03:02:42;;;;;;;1.55;1.00;;;21.00;99.90;;;;;;5085970;28;20406;-63
2021/06/12 03:05:14;;;;;;;1.30;1.20;;;21.00;99.90;;;;;;5085585;28;20028;-62
2021/06/12 03:07:43;;;;;;;1.23;0.90;;;21.10;99.90;;;;;;5086821;28;20036;-62
2021/06/12 03:10:10;;;;;;;0.90;0.90;;;21.10;99.90;;;;;;5075272;28;20115;-62
2021/06/12 03:12:36;;;;;;;0.90;0.90;;;21.00;99.90;;;;;;5066367;28;20032;-62
2021/06/12 03:15:03;;;;;;;0.80;0.80;;;21.00;99.90;;;;;;5068225;28;20153;-62
2021/06/12 03:17:30;;;;;;;0.80;0.80;;;20.90;99.90;;;;;;5085536;28;20039;-62
2021/06/12 03:19:58;;;;;;;0.70;0.70;;;20.80;99.90;;;;;;5086345;28;20020;-63
2021/06/12 03:22:26;;;;;;;1.63;0.80;;;20.70;99.90;;;;;;5086519;28;20055;-63
2021/06/12 03:24:53;;;;;;;0.82;0.82;;;20.70;99.90;;;;;;5086534;28;20020;-63
2021/06/12 03:27:20;;;;;;;0.82;0.82;;;20.60;99.90;;;;;;5086675;28;20032;-62
2021/06/12 03:29:46;;;;;;;0.77;0.77;;;20.60;99.90;;;;;;5087036;28;20028;-63
2021/06/12 03:32:12;;;;;;;0.80;0.80;;;20.50;99.90;;;;;;5070437;28;20491;-63
2021/06/12 03:34:38;;;;;;;0.75;0.75;;;20.40;99.90;;;;;;5065805;28;20047;-63
2021/06/12 03:37:06;;;;;;;1.13;1.02;;;20.40;99.90;;;;;;5066391;28;20029;-63
2021/06/12 03:39:32;;;;;;;0.82;0.82;;;20.50;99.90;;;;;;5065666;28;20025;-63
2021/06/12 03:41:58;;;;;;;0.93;0.85;;;20.50;99.90;;;;;;5066159;28;20036;-63
2021/06/12 03:44:26;;;;;;;0.95;0.90;;;20.40;99.90;;;;;;5086513;28;20027;-63
2021/06/12 03:46:53;;;;;;;1.00;0.90;;;20.40;99.90;;;;;;5087586;28;20036;-63
2021/06/12 03:49:19;;;;;;;1.00;0.90;;;20.30;99.90;;;;;;5090383;28;20071;-63
2021/06/12 03:51:47;;;;;;;1.00;1.00;;;20.20;99.90;;;;;;5090340;28;20020;-63
2021/06/12 03:54:13;;;;;;;0.88;0.85;;;20.10;99.90;;;;;;5074570;28;20051;-63
2021/06/12 03:56:39;;;;;;;1.13;1.10;;;20.00;99.90;;;;;;5069466;28;20118;-63
2021/06/12 03:59:09;;;;;;;2.78;1.00;;;20.00;99.90;;;;;;5069548;28;20033;-63
2021/06/12 04:01:35;;;;;;;1.13;0.90;;;20.00;99.90;;;;;;5070593;28;20035;-63
2021/06/12 04:04:01;;;;;;;1.55;1.00;;;20.00;99.90;;;;;;5069518;28;20059;-63
2021/06/12 04:06:27;;;;;;;0.95;0.90;;;20.00;99.90;;;;;;5069664;28;20414;-63
2021/06/12 04:08:53;;;;;;;1.02;0.93;;;20.00;99.90;;;;;;5072392;28;20032;-63
2021/06/12 04:11:18;;;;;;;3.15;0.98;;;20.00;99.90;;;;;;5090459;28;20024;-63
2021/06/12 04:13:44;;;;;;;1.20;1.10;;;20.10;99.90;;;;;;5090001;28;20056;-63
2021/06/12 04:16:11;;;;;;;1.60;1.17;;;20.00;99.90;;;;;;5089197;28;20432;-62
2021/06/12 04:18:37;;;;;;;1.00;0.80;;;20.00;99.90;;;;;;5082464;28;20024;-63
2021/06/12 04:21:04;;;;;;;0.77;0.77;;;19.90;99.90;;;;;;5068935;28;20027;-63
2021/06/12 04:23:30;;;;;;;0.80;0.80;;;19.90;99.90;;;;;;5069378;28;20017;-63
2021/06/12 04:25:56;;;;;;;1.08;0.95;;;20.00;99.90;;;;;;5068902;28;20082;-63
2021/06/12 04:28:22;;;;;;;1.00;0.90;;;20.10;99.90;;;;;;5069047;28;20423;-63
2021/06/12 04:30:50;;;;;;;0.93;0.93;;;20.00;99.90;;;;;;5069990;28;20028;-63
2021/06/12 04:33:16;;;;;;;0.90;0.90;;;20.00;99.90;;;;;;5076926;28;20359;-63
2021/06/12 04:35:41;;;;;;;0.90;0.90;;;20.10;99.90;;;;;;5072284;28;20033;-64
2021/06/12 04:38:07;;;;;;;0.80;0.80;;;20.20;99.90;;;;;;5074762;28;20380;-64
2021/06/12 04:40:35;;;;;;;1.23;0.90;;;20.20;99.90;;;;;;5078504;28;20024;-63
2021/06/12 04:43:02;;;;;;;0.90;0.90;;;20.20;99.90;;;;;;5076704;28;20025;-63
2021/06/12 04:45:28;;;;;;;0.90;0.90;;;20.20;99.90;;;;;;5105117;28;20061;-63
2021/06/12 04:47:54;;;;;;;1.95;1.00;;;20.40;99.90;;;;;;5109339;28;20078;-63
2021/06/12 04:50:20;;;;;;;0.70;0.70;;;20.30;99.90;;;;;;5109643;28;20038;-63
2021/06/12 04:52:45;;;;;;;0.60;0.60;;;20.40;99.90;;;;;;5102289;28;20040;-63
2021/06/12 04:55:12;;;;;;;0.63;0.63;;;20.40;99.90;;;;;;5088172;28;20111;-63
2021/06/12 04:57:39;;;;;;;1.33;0.85;;;20.40;99.90;;;;;;5088332;28;20032;-63
2021/06/12 05:00:08;;;;;;;0.80;0.80;;;20.40;99.90;;;;;;5088438;28;20035;-63
2021/06/12 05:02:34;;;;;;;0.75;0.70;;;20.50;99.90;;;;;;5086965;28;20039;-63
2021/06/12 05:05:00;;;;;;;0.80;0.80;;;20.70;99.90;;;;;;5088990;28;20016;-63
2021/06/12 05:07:26;;;;;;;0.82;0.82;;;20.60;99.90;;;;;;5088367;28;20028;-63
2021/06/12 05:09:51;;;;;;;0.88;0.88;;;20.50;99.90;;;;;;5088824;28;20024;-63
2021/06/12 05:12:17;;;;;;;0.80;0.80;;;20.50;99.90;;;;;;5088997;28;20066;-63
2021/06/12 05:14:45;;;;;;;0.70;0.70;;;20.50;99.90;;;;;;5088159;28;20514;-63
2021/06/12 05:17:14;;;;;;;0.98;0.98;;;20.50;99.90;;;;;;5086910;28;20398;-63
2021/06/12 05:19:40;;;;;;;0.98;0.98;;;20.50;99.90;;;;;;5088846;28;20055;-63
2021/06/12 05:22:06;;;;;;;1.65;0.98;;;20.50;99.90;;;;;;5088626;28;20051;-63
2021/06/12 05:24:33;;;;;;;0.93;0.82;;;20.50;99.90;;;;;;5088537;28;20022;-63
2021/06/12 05:26:59;;;;;;;0.80;0.80;;;20.50;99.90;;;;;;5084906;28;20705;-63
2021/06/12 05:29:26;;;;;;;0.73;0.73;;;20.60;99.90;;;;;;5068107;28;20032;-63
2021/06/12 05:31:52;;;;;;;0.90;0.90;;;20.70;99.90;;;;;;5079383;28;20059;-63
2021/06/12 05:34:18;;;;;;;0.85;0.85;;;20.80;99.90;;;;;;5088739;28;20066;-63
2021/06/12 05:36:43;;;;;;;1.02;0.95;;;20.80;99.90;;;;;;5088164;28;20035;-63
2021/06/12 05:39:10;;;;;;;0.82;0.80;;;20.90;99.90;;;;;;5087575;28;20085;-63
2021/06/12 05:41:38;;;;;;;0.70;0.70;;;20.90;99.90;;;;;;5088267;28;20424;-63
2021/06/12 05:44:05;;;;;;;0.80;0.80;;;21.00;99.90;;;;;;5088224;28;20398;-63
2021/06/12 05:46:31;;;;;;;0.85;0.85;;;21.10;99.90;;;;;;5087843;28;20031;-63
2021/06/12 05:48:56;;;;;;;0.80;0.80;;;21.10;99.90;;;;;;5088027;28;20040;-64
2021/06/12 05:51:22;;;;;;;0.77;0.77;;;21.10;99.90;;;;;;5068407;28;20581;-63
2021/06/12 05:53:48;;;;;;;0.70;0.70;;;21.10;99.90;;;;;;5077851;28;20104;-70
2021/06/12 05:56:13;;;;;;;0.70;0.70;;;21.20;99.90;;;;;;5078491;28;20039;-49
2021/06/12 05:58:39;;;;;;;0.95;0.85;;;21.10;99.90;;;;;;5077613;28;20032;-53
2021/06/12 06:01:08;;;;;;;0.90;0.90;;;21.20;99.90;;;;;;5082147;28;20039;-71
2021/06/12 06:03:34;;;;;;;1.00;0.90;;;21.20;99.90;;;;;;5076053;28;20327;-71
2021/06/12 06:06:00;;;;;;;0.90;0.90;;;21.30;99.90;;;;;;5087727;28;20093;-71
2021/06/12 06:08:26;;;;;;;0.70;0.70;;;21.30;99.90;;;;;;5081166;28;20036;-71
2021/06/12 06:10:51;;;;;;;2.22;0.82;;;21.30;99.90;;;;;;5073085;28;20091;-71
2021/06/12 06:13:17;;;;;;;0.80;0.80;;;21.30;99.90;;;;;;5085402;28;20040;-71
2021/06/12 06:15:43;;;;;;;0.80;0.80;;;21.40;99.90;;;;;;5075259;28;20065;-71
2021/06/12 06:18:09;;;;;;;0.68;0.68;;;21.40;99.90;;;;;;5087654;28;20024;-68
2021/06/12 06:20:34;;;;;;;0.80;0.80;;;21.30;99.90;;;;;;5073221;28;20479;-68
2021/06/12 06:23:00;;;;;;;0.80;0.80;;;21.20;99.90;;;;;;5080842;28;20115;-69
2021/06/12 06:25:26;;;;;;;0.60;0.60;;;21.20;99.90;;;;;;5073524;28;20031;-68
2021/06/12 06:27:51;;;;;;;0.80;0.80;;;21.20;99.90;;;;;;5080834;28;20531;-68
2021/06/12 06:30:17;;;;;;;0.55;0.55;;;21.30;99.90;;;;;;5086152;28;20115;-69
2021/06/12 06:32:43;;;;;;;0.70;0.70;;;21.40;99.90;;;;;;5065115;28;20029;-69
2021/06/12 06:35:10;;;;;;;0.57;0.57;;;21.40;99.90;;;;;;5068893;28;20027;-68
2021/06/12 06:37:35;;;;;;;0.93;0.88;;;21.40;99.90;;;;;;5085812;28;20020;-68
2021/06/12 06:40:01;;;;;;;0.60;0.60;;;21.40;99.90;;;;;;5087623;28;20490;-68
2021/06/12 06:42:27;;;;;;;0.77;0.77;;;21.50;99.90;;;;;;5084039;28;20043;-68
2021/06/12 06:44:54;;;;;;;0.65;0.65;;;21.40;99.90;;;;;;5071068;28;20020;-69
2021/06/12 06:47:19;;;;;;;0.50;0.50;;;21.50;99.90;;;;;;5087198;28;20059;-69
2021/06/12 06:49:45;;;;;;;0.50;0.50;;;21.50;99.90;;;;;;5087018;28;20059;-68
2021/06/12 06:52:11;;;;;;;0.68;0.68;;;21.50;99.90;;;;;;5086803;28;20040;-69
2021/06/12 06:54:37;;;;;;;0.70;0.70;;;21.60;99.90;;;;;;5073664;28;20025;-69
2021/06/12 06:57:04;;;;;;;0.98;0.90;;;21.70;99.90;;;;;;5069535;28;20024;-70
2021/06/12 06:59:30;;;;;;;0.70;0.70;;;21.40;99.90;;;;;;5085257;28;20020;-70
2021/06/12 07:01:56;;;;;;;0.60;0.60;;;21.50;99.90;;;;;;5066464;28;20036;-69
2021/06/12 07:04:22;;;;;;;1.10;0.88;;;21.70;99.90;;;;;;5074550;28;20386;-69
2021/06/12 07:06:47;;;;;;;0.93;0.80;;;21.70;99.90;;;;;;5080389;28;20043;-69
2021/06/12 07:09:13;;;;;;;0.70;0.70;;;21.70;99.90;;;;;;5086923;28;20028;-69
2021/06/12 07:11:39;;;;;;;0.70;0.70;;;21.70;99.90;;;;;;5080574;28;20032;-69
2021/06/12 07:14:04;;;;;;;0.77;0.77;;;21.70;99.90;;;;;;5085773;28;20025;-70
2021/06/12 07:16:30;;;;;;;0.80;0.80;;;21.60;99.90;;;;;;5067792;28;20406;-71
2021/06/12 07:18:57;;;;;;;0.70;0.70;;;21.80;99.90;;;;;;5067651;28;20033;-70
2021/06/12 07:21:23;;;;;;;0.50;0.50;;;21.90;99.90;;;;;;5077130;28;20024;-70
2021/06/12 07:23:48;;;;;;;0.60;0.60;;;21.70;99.90;;;;;;5085613;28;20030;-69
2021/06/12 07:26:14;;;;;;;0.70;0.70;;;21.70;99.90;;;;;;5077777;28;20024;-69
2021/06/12 07:28:40;;;;;;;1.13;0.60;;;21.90;99.90;;;;;;5079283;28;20471;-70
2021/06/12 07:31:06;;;;;;;0.60;0.52;;;22.00;99.90;;;;;;5076671;28;20394;-71
2021/06/12 07:33:32;;;;;;;0.50;0.50;;;22.10;99.90;;;;;;5068341;28;20037;-71
2021/06/12 07:35:58;;;;;;;0.70;0.70;;;22.10;99.90;;;;;;5067779;28;20498;-70
2021/06/12 07:38:24;;;;;;;0.60;0.60;;;22.20;99.90;;;;;;5080102;28;20028;-70
2021/06/12 07:40:50;;;;;;;0.60;0.60;;;22.10;99.90;;;;;;5070230;28;20013;-70
2021/06/12 07:43:19;;;;;;;0.63;0.63;;;22.10;99.90;;;;;;5066037;28;20026;-70
2021/06/12 07:45:49;;;;;;;0.70;0.70;;;22.10;99.90;;;;;;5065528;28;20032;-65
2021/06/12 07:48:15;;;;;;;0.50;0.50;;;22.20;99.90;;;;;;5078112;28;20035;-65
2021/06/12 07:50:42;;;;;;;0.47;0.47;;;22.30;99.90;;;;;;5086077;28;20398;-65
2021/06/12 07:53:09;;;;;;;0.60;0.60;;;22.20;99.90;;;;;;5085434;28;20020;-65
2021/06/12 07:55:36;;;;;;;1.15;0.70;;;22.20;99.90;;;;;;5085288;28;20024;-65
2021/06/12 07:58:02;;;;;;;0.60;0.60;;;22.30;99.90;;;;;;5085915;28;20502;-65
2021/06/12 08:00:28;;;;;;;0.70;0.70;;;22.40;99.90;;;;;;5081217;28;20027;-65
2021/06/12 08:02:54;;;;;;;1.08;0.90;;;22.40;99.90;;;;;;5072830;28;20024;-65
2021/06/12 08:05:20;;;;;;;0.90;0.73;;;22.40;99.90;;;;;;5086598;28;20081;-65
2021/06/12 08:07:46;;;;;;;0.80;0.80;;;22.50;99.90;;;;;;5080143;28;20028;-67
2021/06/12 08:10:13;;;;;;;0.68;0.68;;;22.60;99.90;;;;;;5074471;28;20043;-67
2021/06/12 08:12:40;;;;;;;1.10;1.00;;;22.40;99.90;;;;;;5068079;28;20115;-67
2021/06/12 08:15:07;;;;;;;0.63;0.63;;;22.50;99.90;;;;;;5077388;28;20574;-67
2021/06/12 08:17:33;;;;;;;0.70;0.70;;;22.60;99.90;;;;;;5085377;28;20052;-66
2021/06/12 08:19:59;;;;;;;1.80;0.70;;;22.80;99.90;;;;;;5085689;28;20125;-65
2021/06/12 08:22:24;;;;;;;1.00;0.85;;;22.80;99.90;;;;;;5085867;28;20032;-67
2021/06/12 08:24:50;;;;;;;1.38;0.75;;;22.80;99.90;;;;;;5085233;28;20039;-67
2021/06/12 08:27:16;;;;;;;1.02;0.85;;;22.70;99.90;;;;;;5069583;28;20031;-67
2021/06/12 08:29:43;;;;;;;0.70;0.70;;;22.60;99.90;;;;;;5080182;28;20115;-65
2021/06/12 08:32:09;;;;;;;0.77;0.77;;;22.90;99.90;;;;;;5065804;28;20519;-61
2021/06/12 08:34:36;;;;;;;0.90;0.90;;;22.90;99.90;;;;;;5068902;28;20441;-61
2021/06/12 08:37:03;;;;;;;0.70;0.70;;;23.10;99.90;;;;;;5086737;28;20032;-63
2021/06/12 08:39:31;;;;;;;0.80;0.80;;;23.20;99.90;;;;;;5088562;28;20490;-65
2021/06/12 08:41:57;;;;;;;0.73;0.73;;;23.20;99.90;;;;;;5079119;28;20370;-65
2021/06/12 08:44:23;;;;;;;0.70;0.60;;;23.20;99.90;;;;;;5088475;28;20077;-66
2021/06/12 08:46:51;;;;;;;1.23;0.88;;;23.30;99.90;;;;;;5089020;28;20262;-67
2021/06/12 08:49:18;;;;;;;0.88;0.85;;;23.30;99.90;;;;;;5088894;28;20429;-68
2021/06/12 08:51:44;;;;;;;0.95;0.82;;;23.30;99.90;;;;;;5083981;28;20044;-66
2021/06/12 08:54:18;;;;;;;0.80;0.80;;;23.40;99.90;;;;;;5081869;28;20035;-66
2021/06/12 08:56:46;;;;;;;1.05;0.90;;;23.50;99.90;;;;;;5090147;28;20394;-69
2021/06/12 08:59:12;;;;;;;0.77;0.77;;;23.50;99.90;;;;;;5073831;28;20115;-67
2021/06/12 09:01:40;;;;;;;1.05;0.95;;;23.50;99.90;;;;;;5076157;28;20028;-63
2021/06/12 09:04:06;;;;;;;1.40;1.10;;;23.50;99.90;;;;;;5087736;28;20032;-63
2021/06/12 09:06:33;;;;;;;0.90;0.90;;;23.50;99.90;;;;;;5073026;28;20074;-67
2021/06/12 09:08:58;;;;;;;0.85;0.80;;;23.70;99.90;;;;;;5080191;28;20042;-67
2021/06/12 09:11:25;;;;;;;0.80;0.80;;;23.70;99.90;;;;;;5087869;28;20036;-65
2021/06/12 09:14:02;;;;;;;1.00;0.80;;;23.70;99.90;;;;;;5088434;28;20024;-63
2021/06/12 09:16:33;;;;;;;0.75;0.75;;;23.80;99.90;;;;;;5088331;28;20024;-63
2021/06/12 09:19:05;;;;;;;0.85;0.85;;;23.90;99.90;;;;;;5070945;28;20024;-63
2021/06/12 09:21:36;;;;;;;0.70;0.70;;;24.10;99.90;;;;;;5068510;28;20027;-62
2021/06/12 09:24:06;;;;;;;0.93;0.93;;;24.00;99.90;;;;;;5077621;28;20031;-64
2021/06/12 09:26:40;;;;;;;1.08;1.00;;;24.00;99.90;;;;;;5087883;28;20032;-64
2021/06/12 09:29:07;;;;;;;1.27;1.17;;;23.80;99.90;;;;;;5085415;28;20035;-66
2021/06/12 09:31:33;;;;;;;0.70;0.70;;;24.00;99.90;;;;;;5080574;28;20028;-66
2021/06/12 09:34:09;;;;;;;1.20;1.10;;;24.00;99.90;;;;;;5088040;28;20088;-66
2021/06/12 09:36:36;;;;;;;0.80;0.80;;;24.00;99.90;;;;;;5087814;28;20024;-66
2021/06/12 09:39:08;;;;;;;0.90;0.90;;;24.10;99.90;;;;;;5088100;28;20028;-66
2021/06/12 09:41:35;;;;;;;0.90;0.90;;;24.30;99.90;;;;;;5077515;28;20039;-65
2021/06/12 09:44:01;;;;;;;0.70;0.70;;;24.30;99.90;;;;;;5085547;28;20065;-63
2021/06/12 09:46:38;;;;;;;0.80;0.80;;;24.50;99.90;;;;;;5087700;28;20435;-63
2021/06/12 09:49:06;;;;;;;0.80;0.80;;;24.50;99.90;;;;;;5087780;28;20032;-64
2021/06/12 09:51:32;;;;;;;1.20;1.10;;;24.60;99.90;;;;;;5087408;28;20024;-64
2021/06/12 09:54:00;;;;;;;1.40;1.30;;;24.50;99.90;;;;;;5068911;28;20028;-65
2021/06/12 09:56:26;;;;;;;1.20;1.10;;;24.40;99.90;;;;;;5067303;28;20063;-64
2021/06/12 09:58:56;;;;;;;1.55;1.30;;;24.40;99.90;;;;;;5067439;28;20056;-65
2021/06/12 10:01:24;;;;;;;1.35;1.25;;;24.50;99.90;;;;;;5079123;28;21198;-64
2021/06/12 10:04:11;;;;;;;1.00;1.00;;;24.60;99.90;;;;;;5088378;28;20421;-65
2021/06/12 10:06:37;;;;;;;0.90;0.90;;;24.70;99.90;;;;;;5085363;28;20024;-65
2021/06/12 10:09:07;;;;;;;1.30;1.20;;;24.80;99.90;;;;;;5087544;28;20039;-64
2021/06/12 10:11:34;;;;;;;0.90;0.90;;;24.80;99.90;;;;;;5086441;28;20024;-64
2021/06/12 10:14:00;;;;;;;1.00;1.00;;;25.00;99.90;;;;;;5069194;28;20059;-64
2021/06/12 10:16:29;;;;;;;1.30;1.20;;;25.10;99.90;;;;;;5066910;28;20367;-65
2021/06/12 10:18:56;;;;;;;2.40;1.20;;;25.20;99.90;;;;;;5066997;28;20120;-65
2021/06/12 10:21:23;;;;;;;1.00;1.00;;;25.20;99.90;;;;;;5066736;28;20025;-65
2021/06/12 10:23:50;;;;;;;1.65;1.00;;;25.30;99.90;;;;;;5072431;28;20020;-65
2021/06/12 10:26:19;;;;;;;0.90;0.90;;;25.40;99.90;;;;;;5080193;28;20032;-65
2021/06/12 10:28:45;;;;;;;0.80;0.80;;;25.50;99.90;;;;;;5066414;28;20024;-65
2021/06/12 10:31:15;;;;;;;0.90;0.90;;;25.50;99.90;;;;;;5065331;28;20033;-65
2021/06/12 10:33:43;;;;;;;1.10;1.00;;;25.50;99.90;;;;;;5066758;28;20422;-65
2021/06/12 10:36:33;;;;;;;1.15;1.05;;;25.80;99.90;;;;;;5065064;28;20028;-65
2021/06/12 10:39:01;;;;;;;1.00;0.90;;;25.60;99.90;;;;;;5066582;28;20032;-65
2021/06/12 10:41:28;;;;;;;0.90;0.90;;;25.60;99.90;;;;;;5076073;28;20039;-65
2021/06/12 10:44:04;;;;;;;0.80;0.80;;;25.80;99.90;;;;;;5071174;28;20056;-65
2021/06/12 10:46:32;;;;;;;0.90;0.90;;;26.00;99.90;;;;;;5065899;28;20024;-65
2021/06/12 10:49:00;;;;;;;1.38;1.27;;;26.00;99.90;;;;;;5067048;28;20032;-64
2021/06/12 10:51:25;;;;;;;1.33;1.10;;;26.00;99.90;;;;;;5066177;28;20024;-64
2021/06/12 10:54:09;;;;;;;1.40;1.30;;;26.10;99.90;;;;;;5066346;28;20517;-66
2021/06/12 10:56:43;;;;;;;1.15;1.05;;;26.20;99.90;;;;;;5064719;28;20141;-65
2021/06/12 10:59:10;;;;;;;1.17;1.08;;;26.40;99.90;;;;;;5064279;28;20064;-65
2021/06/12 11:01:36;;;;;;;0.85;0.85;;;26.40;99.90;;;;;;5065723;28;20031;-65
2021/06/12 11:09:14;;;;;;;1.20;1.10;;;26.20;99.90;;;;;;5070550;28;20025;-65
2021/06/12 11:11:41;;;;;;;1.20;1.08;;;26.40;99.90;;;;;;5086382;28;20038;-66
2021/06/12 11:14:22;;;;;;;1.52;1.30;;;26.50;99.90;;;;;;5085955;28;20024;-65
2021/06/12 11:17:14;;;;;;;1.63;1.38;;;26.50;99.90;;;;;;5087016;28;20028;-64
2021/06/12 11:19:47;;;;;;;1.55;1.10;;;26.50;99.90;;;;;;5084383;28;20028;-65
2021/06/12 11:22:31;;;;;;;1.00;1.00;;;26.60;99.90;;;;;;5066330;28;20501;-66
2021/06/12 11:24:58;;;;;;;1.38;1.27;;;26.70;99.90;;;;;;5080620;28;20025;-66
2021/06/12 11:27:29;;;;;;;1.00;1.00;;;26.80;99.90;;;;;;5085563;28;20043;-66
2021/06/12 11:30:19;;;;;;;1.17;1.08;;;27.10;99.90;;;;;;5084270;28;20174;-66
2021/06/12 11:32:57;;;;;;;1.00;0.90;;;27.30;99.90;;;;;;5071245;28;20039;-66
2021/06/12 11:35:42;;;;;;;0.85;0.85;;;27.30;99.90;;;;;;5076377;28;20089;-67
2021/06/12 11:38:37;;;;;;;0.60;0.60;;;27.50;99.90;;;;;;5070005;28;20033;-67
2021/06/12 11:41:04;;;;;;;0.88;0.88;;;27.80;99.90;;;;;;5064483;28;20039;-67
2021/06/12 11:43:50;;;;;;;0.95;0.80;;;28.00;99.90;;;;;;5064559;28;20024;-66
2021/06/12 11:46:28;;;;;;;0.90;0.90;;;28.10;99.90;;;;;;5064608;28;20495;-66
2021/06/12 11:48:55;;;;;;;1.00;1.00;;;28.00;99.90;;;;;;5068556;28;20032;-65
2021/06/12 11:51:22;;;;;;;1.20;1.10;;;28.20;99.90;;;;;;5085379;28;20038;-65
2021/06/12 11:54:15;;;;;;;1.20;1.10;;;28.20;99.90;;;;;;5079517;28;20031;-66
2021/06/12 11:56:46;;;;;;;1.10;1.00;;;28.40;99.90;;;;;;5071334;28;20473;-66
2021/06/12 11:59:15;;;;;;;1.52;1.42;;;28.70;99.90;;;;;;5075609;28;20037;-67
2021/06/12 12:01:47;;;;;;;1.00;1.00;;;28.60;99.90;;;;;;5066985;28;20310;-66
2021/06/12 12:04:16;;;;;;;1.42;1.25;;;29.00;99.90;;;;;;5067137;28;20112;-67
2021/06/12 12:06:49;;;;;;;1.17;1.10;;;29.00;99.90;;;;;;5073766;28;20021;-67
2021/06/12 12:09:33;;;;;;;1.08;1.00;;;29.30;99.90;;;;;;5077163;28;20088;-67
2021/06/12 12:12:06;;;;;;;;;;;29.40;99.90;;;;;;5082941;28;20401;-66
2021/06/12 12:14:38;;;;;;;1.90;1.50;;;29.50;99.90;;;;;;5076636;28;19912;-65
2021/06/12 12:17:21;;;;;;;1.98;1.50;;;29.30;99.90;;;;;;5070489;28;20047;-65
2021/06/12 12:20:08;;;;;;;1.67;1.58;;;29.40;99.90;;;;;;5070600;28;20517;-64
2021/06/12 12:22:48;;;;;;;1.30;1.20;;;29.60;99.90;;;;;;5091893;28;20041;-64
2021/06/12 12:25:23;;;;;;;1.20;1.10;;;29.70;99.90;;;;;;5102471;28;20024;-64
2021/06/12 12:28:10;;;;;;;1.27;1.17;;;29.80;99.90;;;;;;5087984;28;20390;-63
2021/06/12 12:30:36;;;;;;;1.02;1.00;;;29.90;99.90;;;;;;5069820;28;20107;-64
2021/06/12 12:33:28;;;;;;;0.98;0.98;;;29.90;99.90;;;;;;5104442;28;20082;-64
2021/06/12 12:36:01;;;;;;;0.90;0.90;;;29.80;99.90;;;;;;5087144;28;20068;-63
2021/06/12 12:38:26;;;;;;;1.10;1.08;;;30.00;99.90;;;;;;5082140;28;20016;-63
2021/06/12 12:40:53;;;;;;;1.00;0.90;;;30.30;99.90;;;;;;5072798;28;20038;-65
2021/06/12 12:43:20;;;;;;;0.80;0.80;;;30.20;99.90;;;;;;5086321;28;20036;-66
2021/06/12 12:45:48;;;;;;;1.38;1.00;;;29.80;99.90;;;;;;5079056;28;20029;-64
2021/06/12 12:48:15;;;;;;;1.30;1.20;;;29.70;99.90;;;;;;5068817;28;20406;-64
2021/06/12 12:50:42;;;;;;;0.90;0.90;;;30.00;99.90;;;;;;5068864;28;20031;-65
2021/06/12 12:53:14;;;;;;;0.85;0.85;;;30.40;99.90;;;;;;5069236;28;20028;-66
2021/06/12 12:55:40;;;;;;;1.05;0.95;;;30.40;99.90;;;;;;5068847;28;20028;-65
2021/06/12 12:58:07;;;;;;;0.77;0.77;;;30.50;99.90;;;;;;5073624;28;20355;-66
2021/06/12 13:00:35;;;;;;;0.90;0.90;;;30.40;99.90;;;;;;5075597;28;20024;-68